createdAt,value
2018-01-15T00:00:33.206Z,0
2018-01-15T00:01:42.250Z,0
2018-01-15T00:02:51.565Z,0
2018-01-15T00:04:00.344Z,0
2018-01-15T00:05:09.393Z,0
2018-01-15T00:06:17.907Z,0
2018-01-15T00:07:26.682Z,0
2018-01-15T00:08:35.205Z,0
2018-01-15T00:09:44.262Z,0
2018-01-15T00:10:53.053Z,0
2018-01-15T00:12:01.838Z,0
2018-01-15T00:13:10.630Z,0
2018-01-15T00:14:19.679Z,0
2018-01-15T00:15:28.207Z,0
2018-01-15T00:16:37.274Z,0
2018-01-15T00:17:45.800Z,0
2018-01-15T00:18:54.585Z,0
2018-01-15T00:20:03.114Z,0
2018-01-15T00:21:11.900Z,0
2018-01-15T00:22:20.427Z,0
2018-01-15T00:23:28.952Z,0
2018-01-15T00:24:37.741Z,0
2018-01-15T00:25:46.265Z,0
2018-01-15T00:26:54.795Z,0
2018-01-15T00:28:03.584Z,0
2018-01-15T00:29:12.104Z,0
2018-01-15T00:30:20.635Z,0
2018-01-15T00:31:29.160Z,0
2018-01-15T00:32:37.956Z,0
2018-01-15T00:33:47.006Z,0
2018-01-15T00:34:55.533Z,0
2018-01-15T00:36:04.327Z,0
2018-01-15T00:37:13.653Z,0
2018-01-15T00:38:22.441Z,0
2018-01-15T00:39:31.234Z,0
2018-01-15T00:40:40.022Z,0
2018-01-15T00:41:49.079Z,0
2018-01-15T00:42:57.603Z,0
2018-01-15T00:44:06.125Z,0
2018-01-15T00:45:14.916Z,0
2018-01-15T00:46:23.710Z,0
2018-01-15T00:47:32.238Z,0
2018-01-15T00:48:41.556Z,0
2018-01-15T00:49:50.613Z,0
2018-01-15T00:50:59.135Z,0
2018-01-15T00:52:07.662Z,0
2018-01-15T00:53:16.189Z,0
2018-01-15T00:54:25.241Z,0
2018-01-15T00:55:33.770Z,0
2018-01-15T00:56:42.297Z,0
2018-01-15T00:57:51.353Z,0
2018-01-15T00:59:00.143Z,0
2018-01-15T01:00:08.668Z,0
2018-01-15T01:01:17.457Z,0
2018-01-15T01:02:26.247Z,0
2018-01-15T01:03:35.038Z,0
2018-01-15T01:04:43.559Z,0
2018-01-15T01:05:53.149Z,0
2018-01-15T01:07:02.207Z,0
2018-01-15T01:08:11.257Z,0
2018-01-15T01:09:19.782Z,0
2018-01-15T01:10:28.305Z,0
2018-01-15T01:11:36.826Z,0
2018-01-15T01:12:45.877Z,0
2018-01-15T01:13:54.935Z,0
2018-01-15T01:15:03.457Z,0
2018-01-15T01:16:12.244Z,0
2018-01-15T01:17:21.295Z,0
2018-01-15T01:18:30.084Z,0
2018-01-15T01:19:39.133Z,0
2018-01-15T01:20:47.927Z,0
2018-01-15T01:21:56.716Z,0
2018-01-15T01:23:05.774Z,0
2018-01-15T01:24:14.829Z,0
2018-01-15T01:25:23.886Z,0
2018-01-15T01:26:32.675Z,0
2018-01-15T01:27:41.463Z,0
2018-01-15T01:28:50.517Z,0
2018-01-15T01:29:59.309Z,0
2018-01-15T01:31:08.629Z,0
2018-01-15T01:32:17.415Z,0
2018-01-15T01:33:25.939Z,0
2018-01-15T01:34:34.727Z,0
2018-01-15T01:35:43.250Z,0
2018-01-15T01:36:52.303Z,0
2018-01-15T01:38:01.092Z,0
2018-01-15T01:39:10.413Z,0
2018-01-15T01:40:19.198Z,0
2018-01-15T01:41:28.258Z,0
2018-01-15T01:42:37.045Z,0
2018-01-15T01:43:45.569Z,0
2018-01-15T01:44:54.094Z,0
2018-01-15T01:46:02.880Z,0
2018-01-15T01:47:11.667Z,0
2018-01-15T01:48:20.192Z,0
2018-01-15T01:49:28.982Z,0
2018-01-15T01:50:38.299Z,0
2018-01-15T01:51:47.092Z,0
2018-01-15T01:52:55.881Z,0
2018-01-15T01:54:04.917Z,0
2018-01-15T01:55:14.329Z,0
2018-01-15T01:56:23.381Z,0
2018-01-15T01:57:31.904Z,0
2018-01-15T01:58:40.428Z,0
2018-01-15T01:59:49.219Z,0
2018-01-15T02:00:57.744Z,0
2018-01-15T02:02:06.543Z,0
2018-01-15T02:03:15.598Z,0
2018-01-15T02:04:24.649Z,0
2018-01-15T02:05:33.175Z,0
2018-01-15T02:06:42.227Z,0
2018-01-15T02:07:51.277Z,0
2018-01-15T02:09:00.327Z,0
2018-01-15T02:10:08.851Z,0
2018-01-15T02:11:17.639Z,0
2018-01-15T02:12:26.955Z,0
2018-01-15T02:13:35.478Z,0
2018-01-15T02:14:44.007Z,0
2018-01-15T02:15:53.100Z,0
2018-01-15T02:17:01.623Z,0
2018-01-15T02:18:10.143Z,0
2018-01-15T02:19:19.210Z,0
2018-01-15T02:20:28.262Z,0
2018-01-15T02:21:36.784Z,0
2018-01-15T02:22:45.306Z,0
2018-01-15T02:23:54.355Z,0
2018-01-15T02:25:03.409Z,0
2018-01-15T02:26:11.933Z,0
2018-01-15T02:27:20.720Z,0
2018-01-15T02:28:29.243Z,0
2018-01-15T02:29:38.037Z,0
2018-01-15T02:30:47.095Z,0
2018-01-15T02:31:55.884Z,0
2018-01-15T02:33:04.676Z,0
2018-01-15T02:34:13.202Z,0
2018-01-15T02:35:21.724Z,0
2018-01-15T02:36:30.247Z,0
2018-01-15T02:37:38.772Z,0
2018-01-15T02:38:47.566Z,0
2018-01-15T02:39:56.616Z,0
2018-01-15T02:41:05.411Z,0
2018-01-15T02:42:14.200Z,0
2018-01-15T02:43:22.722Z,0
2018-01-15T02:44:31.514Z,0
2018-01-15T02:45:40.038Z,0
2018-01-15T02:46:49.098Z,0
2018-01-15T02:47:57.626Z,0
2018-01-15T02:49:06.685Z,0
2018-01-15T02:50:15.476Z,0
2018-01-15T02:51:24.001Z,0
2018-01-15T02:52:33.051Z,0
2018-01-15T02:53:41.847Z,0
2018-01-15T02:54:50.637Z,0
2018-01-15T02:55:59.164Z,0
2018-01-15T02:57:07.689Z,0
2018-01-15T02:58:16.219Z,0
2018-01-15T02:59:25.008Z,0
2018-01-15T03:00:33.797Z,0
2018-01-15T03:01:42.324Z,0
2018-01-15T03:02:51.381Z,0
2018-01-15T03:03:59.904Z,0
2018-01-15T03:05:08.694Z,0
2018-01-15T03:06:17.219Z,0
2018-01-15T03:07:26.278Z,0
2018-01-15T03:08:35.066Z,0
2018-01-15T03:09:43.854Z,0
2018-01-15T03:10:52.910Z,0
2018-01-15T03:12:01.698Z,0
2018-01-15T03:13:10.223Z,0
2018-01-15T03:14:19.010Z,0
2018-01-15T03:15:27.530Z,0
2018-01-15T03:16:36.057Z,0
2018-01-15T03:17:44.578Z,0
2018-01-15T03:18:53.896Z,0
2018-01-15T03:20:02.420Z,0
2018-01-15T03:21:11.215Z,0
2018-01-15T03:22:20.008Z,0
2018-01-15T03:23:28.794Z,0
2018-01-15T03:24:38.113Z,0
2018-01-15T03:25:47.169Z,0
2018-01-15T03:26:55.964Z,0
2018-01-15T03:28:04.752Z,0
2018-01-15T03:29:13.274Z,0
2018-01-15T03:30:22.067Z,0
2018-01-15T03:31:30.593Z,0
2018-01-15T03:32:39.912Z,0
2018-01-15T03:33:48.701Z,0
2018-01-15T03:34:57.751Z,0
2018-01-15T03:36:06.540Z,0
2018-01-15T03:37:15.331Z,0
2018-01-15T03:38:24.120Z,0
2018-01-15T03:39:32.909Z,0
2018-01-15T03:40:41.699Z,0
2018-01-15T03:41:50.489Z,0
2018-01-15T03:42:59.012Z,0
2018-01-15T03:44:07.802Z,0
2018-01-15T03:45:16.592Z,0
2018-01-15T03:46:25.381Z,0
2018-01-15T03:47:33.906Z,0
2018-01-15T03:48:42.698Z,0
2018-01-15T03:49:51.489Z,0
2018-01-15T03:51:00.277Z,0
2018-01-15T03:52:09.168Z,0
2018-01-15T03:53:17.694Z,0
2018-01-15T03:54:26.482Z,0
2018-01-15T03:55:35.538Z,0
2018-01-15T03:56:44.063Z,0
2018-01-15T03:57:52.590Z,0
2018-01-15T03:59:01.646Z,0
2018-01-15T04:00:10.703Z,0
2018-01-15T04:01:19.494Z,0
2018-01-15T04:02:28.286Z,0
2018-01-15T04:03:37.344Z,0
2018-01-15T04:04:46.134Z,0
2018-01-15T04:05:54.926Z,0
2018-01-15T04:07:04.252Z,0
2018-01-15T04:08:12.775Z,0
2018-01-15T04:09:21.301Z,0
2018-01-15T04:10:30.625Z,0
2018-01-15T04:11:39.148Z,0
2018-01-15T04:12:48.206Z,0
2018-01-15T04:13:57.524Z,0
2018-01-15T04:15:06.316Z,0
2018-01-15T04:16:15.381Z,0
2018-01-15T04:17:23.904Z,0
2018-01-15T04:18:32.965Z,0
2018-01-15T04:19:41.492Z,0
2018-01-15T04:20:50.287Z,0
2018-01-15T04:21:59.075Z,0
2018-01-15T04:23:07.864Z,0
2018-01-15T04:24:16.389Z,0
2018-01-15T04:25:25.179Z,0
2018-01-15T04:26:34.501Z,0
2018-01-15T04:27:43.025Z,0
2018-01-15T04:28:51.817Z,0
2018-01-15T04:30:00.926Z,0
2018-01-15T04:31:09.984Z,0
2018-01-15T04:32:18.777Z,0
2018-01-15T04:33:27.569Z,0
2018-01-15T04:34:36.358Z,0
2018-01-15T04:35:44.884Z,0
2018-01-15T04:36:53.675Z,0
2018-01-15T04:38:02.199Z,0
2018-01-15T04:39:10.725Z,0
2018-01-15T04:40:19.251Z,0
2018-01-15T04:41:28.313Z,0
2018-01-15T04:42:37.097Z,0
2018-01-15T04:43:45.883Z,0
2018-01-15T04:44:54.412Z,0
2018-01-15T04:46:02.933Z,0
2018-01-15T04:47:11.725Z,0
2018-01-15T04:48:20.249Z,0
2018-01-15T04:49:29.832Z,0
2018-01-15T04:50:38.357Z,0
2018-01-15T04:51:47.155Z,0
2018-01-15T04:52:55.681Z,0
2018-01-15T04:54:04.473Z,0
2018-01-15T04:55:13.263Z,0
2018-01-15T04:56:22.318Z,0
2018-01-15T04:57:31.107Z,0
2018-01-15T04:58:39.631Z,0
2018-01-15T04:59:48.423Z,0
2018-01-15T05:00:57.212Z,0
2018-01-15T05:02:06.272Z,0
2018-01-15T05:03:15.328Z,0
2018-01-15T05:04:24.113Z,0
2018-01-15T05:05:32.639Z,0
2018-01-15T05:06:41.707Z,0
2018-01-15T05:07:50.497Z,0
2018-01-15T05:08:59.548Z,0
2018-01-15T05:10:08.073Z,0
2018-01-15T05:11:17.400Z,0
2018-01-15T05:12:26.187Z,0
2018-01-15T05:13:34.974Z,0
2018-01-15T05:14:43.765Z,0
2018-01-15T05:15:52.555Z,0
2018-01-15T05:17:01.611Z,0
2018-01-15T05:18:10.460Z,0
2018-01-15T05:19:19.519Z,0
2018-01-15T05:20:28.575Z,0
2018-01-15T05:21:37.626Z,0
2018-01-15T05:22:46.154Z,0
2018-01-15T05:23:55.210Z,0
2018-01-15T05:25:03.737Z,0
2018-01-15T05:26:12.794Z,0
2018-01-15T05:27:21.352Z,0
2018-01-15T05:28:30.425Z,0
2018-01-15T05:29:38.945Z,0
2018-01-15T05:30:48.004Z,0
2018-01-15T05:31:56.532Z,0
2018-01-15T05:33:05.326Z,0
2018-01-15T05:34:14.381Z,0
2018-01-15T05:35:23.701Z,0
2018-01-15T05:36:32.754Z,0
2018-01-15T05:37:41.542Z,0
2018-01-15T05:38:50.336Z,0
2018-01-15T05:39:59.126Z,0
2018-01-15T05:41:07.651Z,0
2018-01-15T05:42:16.441Z,0
2018-01-15T05:43:25.255Z,0
2018-01-15T05:44:34.308Z,0
2018-01-15T05:45:42.832Z,0
2018-01-15T05:46:51.364Z,0
2018-01-15T05:47:59.885Z,0
2018-01-15T05:49:08.409Z,0
2018-01-15T05:50:17.461Z,0
2018-01-15T05:51:25.988Z,0
2018-01-15T05:52:34.782Z,0
2018-01-15T05:53:43.307Z,0
2018-01-15T05:54:52.097Z,0
2018-01-15T05:56:00.886Z,0
2018-01-15T05:57:09.676Z,0
2018-01-15T05:58:18.469Z,0
2018-01-15T05:59:26.992Z,0
2018-01-15T06:00:35.518Z,0
2018-01-15T06:01:44.307Z,0
2018-01-15T06:02:52.836Z,0
2018-01-15T06:04:01.357Z,0
2018-01-15T06:05:09.883Z,0
2018-01-15T06:06:18.674Z,0
2018-01-15T06:07:27.877Z,0
2018-01-15T06:08:36.428Z,0
2018-01-15T06:09:45.364Z,0
2018-01-15T06:10:54.175Z,0
2018-01-15T06:12:03.142Z,0
2018-01-15T06:13:11.682Z,0
2018-01-15T06:14:20.217Z,0
2018-01-15T06:15:28.899Z,0
2018-01-15T06:16:37.556Z,0
2018-01-15T06:17:46.094Z,0
2018-01-15T06:18:54.993Z,0
2018-01-15T06:20:04.150Z,0
2018-01-15T06:21:12.752Z,0
2018-01-15T06:22:21.898Z,0
2018-01-15T06:23:31.132Z,0
2018-01-15T06:24:39.667Z,0
2018-01-15T06:25:48.769Z,0
2018-01-15T06:26:57.839Z,0
2018-01-15T06:28:06.947Z,0
2018-01-15T06:29:15.951Z,0
2018-01-15T06:30:24.820Z,0
2018-01-15T06:31:33.695Z,0
2018-01-15T06:32:42.230Z,0
2018-01-15T06:33:51.119Z,0
2018-01-15T06:34:59.862Z,0
2018-01-15T06:36:08.937Z,0
2018-01-15T06:37:18.335Z,0
2018-01-15T06:38:27.128Z,0
2018-01-15T06:39:35.651Z,0
2018-01-15T06:40:44.441Z,0
2018-01-15T06:41:52.967Z,0
2018-01-15T06:43:02.022Z,0
2018-01-15T06:44:10.904Z,0
2018-01-15T06:45:19.753Z,0
2018-01-15T06:51:49.646Z,0
2018-01-15T06:52:58.443Z,0
2018-01-15T06:54:07.394Z,0
2018-01-15T06:55:16.207Z,0
2018-01-15T06:56:25.000Z,0
2018-01-15T06:57:33.525Z,0
2018-01-15T06:58:42.589Z,0
2018-01-15T06:59:51.643Z,0
2018-01-15T07:01:00.171Z,0
2018-01-15T07:02:08.960Z,0
2018-01-15T07:03:18.023Z,0
2018-01-15T07:04:27.078Z,0
2018-01-15T07:05:36.136Z,0
2018-01-15T07:06:45.191Z,0
2018-01-15T07:07:53.981Z,0
2018-01-15T07:09:02.508Z,0
2018-01-15T07:10:11.033Z,0
2018-01-15T07:11:20.089Z,0
2018-01-15T07:12:29.149Z,0
2018-01-15T07:13:37.940Z,0
2018-01-15T07:14:46.465Z,0
2018-01-15T07:15:54.987Z,0
2018-01-15T07:17:03.781Z,0
2018-01-15T07:18:12.838Z,0
2018-01-15T07:19:21.366Z,0
2018-01-15T07:20:30.156Z,0
2018-01-15T07:21:38.945Z,0
2018-01-15T07:22:47.471Z,0
2018-01-15T07:23:55.996Z,0
2018-01-15T07:25:05.052Z,0
2018-01-15T07:26:13.579Z,0
2018-01-15T07:27:22.104Z,0
2018-01-15T07:28:30.955Z,0
2018-01-15T07:29:39.428Z,0
2018-01-15T07:30:47.954Z,0
2018-01-15T07:31:56.482Z,0
2018-01-15T07:33:05.009Z,0
2018-01-15T07:34:13.800Z,0
2018-01-15T07:35:22.324Z,0
2018-01-15T07:36:30.849Z,0
2018-01-15T07:37:39.903Z,0
2018-01-15T07:38:48.995Z,0
2018-01-15T07:39:57.490Z,0
2018-01-15T07:41:06.282Z,0
2018-01-15T07:42:14.811Z,5
2018-01-15T07:43:23.339Z,5
2018-01-15T07:44:32.402Z,5
2018-01-15T07:45:41.191Z,5
2018-01-15T07:46:49.716Z,5
2018-01-15T07:47:58.245Z,5
2018-01-15T07:49:07.036Z,5
2018-01-15T07:50:16.132Z,5
2018-01-15T07:51:24.928Z,5
2018-01-15T07:52:33.454Z,5
2018-01-15T07:53:42.243Z,5
2018-01-15T07:54:51.037Z,5
2018-01-15T07:55:59.564Z,5
2018-01-15T07:57:08.087Z,5
2018-01-15T07:58:16.878Z,5
2018-01-15T07:59:25.937Z,5
2018-01-15T08:00:34.736Z,5
2018-01-15T08:01:43.261Z,5
2018-01-15T08:02:52.050Z,5
2018-01-15T08:04:00.574Z,5
2018-01-15T08:05:09.629Z,5
2018-01-15T08:06:18.420Z,5
2018-01-15T08:07:26.949Z,5
2018-01-15T08:08:35.475Z,5
2018-01-15T08:09:44.271Z,10
2018-01-15T08:10:53.062Z,10
2018-01-15T08:12:01.854Z,10
2018-01-15T08:13:10.389Z,10
2018-01-15T08:14:19.179Z,10
2018-01-15T08:15:27.706Z,15
2018-01-15T08:16:36.231Z,15
2018-01-15T08:17:45.303Z,20
2018-01-15T08:18:54.092Z,20
2018-01-15T08:20:03.147Z,25
2018-01-15T08:21:12.215Z,25
2018-01-15T08:22:21.008Z,25
2018-01-15T08:23:29.799Z,25
2018-01-15T08:24:38.856Z,25
2018-01-15T08:25:47.381Z,25
2018-01-15T08:26:56.699Z,25
2018-01-15T08:28:05.222Z,30
2018-01-15T08:29:13.749Z,25
2018-01-15T08:30:22.546Z,30
2018-01-15T08:31:31.091Z,30
2018-01-15T08:32:40.438Z,30
2018-01-15T08:33:49.767Z,30
2018-01-15T08:34:58.825Z,30
2018-01-15T08:36:07.350Z,30
2018-01-15T08:37:16.142Z,35
2018-01-15T08:38:24.687Z,35
2018-01-15T08:39:33.243Z,40
2018-01-15T08:40:41.760Z,40
2018-01-15T08:41:50.861Z,40
2018-01-15T08:42:59.915Z,40
2018-01-15T08:44:08.443Z,40
2018-01-15T08:45:17.236Z,45
2018-01-15T08:46:25.762Z,45
2018-01-15T08:47:34.294Z,45
2018-01-15T08:48:43.094Z,45
2018-01-15T08:49:51.886Z,45
2018-01-15T08:51:00.412Z,45
2018-01-15T08:52:08.937Z,45
2018-01-15T08:53:17.462Z,40
2018-01-15T08:54:25.994Z,40
2018-01-15T08:55:34.517Z,40
2018-01-15T08:56:43.589Z,40
2018-01-15T08:57:52.117Z,40
2018-01-15T08:59:01.175Z,40
2018-01-15T09:00:09.965Z,45
2018-01-15T09:01:19.419Z,45
2018-01-15T09:02:28.744Z,40
2018-01-15T09:03:37.534Z,40
2018-01-15T09:04:46.349Z,40
2018-01-15T09:05:54.877Z,45
2018-01-15T09:07:03.405Z,40
2018-01-15T09:08:12.463Z,40
2018-01-15T09:09:20.989Z,40
2018-01-15T09:10:30.054Z,45
2018-01-15T09:11:38.852Z,50
2018-01-15T09:12:47.380Z,50
2018-01-15T09:13:56.431Z,60
2018-01-15T09:15:05.537Z,60
2018-01-15T09:16:14.602Z,65
2018-01-15T09:17:23.394Z,65
2018-01-15T09:18:31.922Z,65
2018-01-15T09:19:41.014Z,75
2018-01-15T09:20:49.542Z,60
2018-01-15T09:21:58.330Z,70
2018-01-15T09:23:07.121Z,70
2018-01-15T09:24:15.649Z,55
2018-01-15T09:25:24.440Z,70
2018-01-15T09:26:33.497Z,75
2018-01-15T09:27:42.298Z,65
2018-01-15T09:28:51.091Z,65
2018-01-15T09:29:59.611Z,70
2018-01-15T09:31:08.934Z,75
2018-01-15T09:32:17.723Z,75
2018-01-15T09:33:26.515Z,75
2018-01-15T09:34:35.572Z,80
2018-01-15T09:35:44.362Z,85
2018-01-15T09:36:52.889Z,85
2018-01-15T09:38:01.493Z,85
2018-01-15T09:39:12.660Z,85
2018-01-15T09:40:21.971Z,80
2018-01-15T09:41:31.541Z,80
2018-01-15T09:42:41.000Z,85
2018-01-15T09:43:50.131Z,85
2018-01-15T09:44:59.321Z,85
2018-01-15T09:46:08.575Z,85
2018-01-15T09:47:17.476Z,90
2018-01-15T09:48:26.972Z,85
2018-01-15T09:49:35.502Z,85
2018-01-15T09:50:44.293Z,90
2018-01-15T09:51:53.614Z,90
2018-01-15T09:53:02.406Z,95
2018-01-15T09:54:11.471Z,95
2018-01-15T09:55:19.995Z,90
2018-01-15T09:56:28.788Z,85
2018-01-15T09:57:37.846Z,80
2018-01-15T09:58:46.375Z,75
2018-01-15T09:59:55.171Z,75
2018-01-15T10:01:04.496Z,80
2018-01-15T10:02:13.290Z,80
2018-01-15T10:03:22.188Z,75
2018-01-15T10:04:31.247Z,70
2018-01-15T10:05:40.042Z,70
2018-01-15T10:06:48.573Z,70
2018-01-15T10:07:57.104Z,70
2018-01-15T10:09:06.261Z,80
2018-01-15T10:10:15.017Z,85
2018-01-15T10:11:23.811Z,95
2018-01-15T10:12:32.872Z,105
2018-01-15T10:13:42.001Z,110
2018-01-15T10:14:50.749Z,120
2018-01-15T10:15:59.811Z,120
2018-01-15T10:17:08.873Z,120
2018-01-15T10:18:17.662Z,115
2018-01-15T10:19:26.458Z,110
2018-01-15T10:20:34.982Z,110
2018-01-15T10:21:43.510Z,105
2018-01-15T10:22:52.315Z,105
2018-01-15T10:24:00.986Z,105
2018-01-15T10:25:09.786Z,105
2018-01-15T10:26:18.317Z,105
2018-01-15T10:27:27.372Z,105
2018-01-15T10:28:36.425Z,105
2018-01-15T10:29:45.215Z,110
2018-01-15T10:30:53.742Z,110
2018-01-15T10:32:02.274Z,105
2018-01-15T10:33:11.335Z,105
2018-01-15T10:34:20.435Z,105
2018-01-15T10:35:28.963Z,110
2018-01-15T10:36:38.023Z,115
2018-01-15T10:37:46.546Z,115
2018-01-15T10:38:55.084Z,115
2018-01-15T10:40:03.608Z,120
2018-01-15T10:41:12.408Z,120
2018-01-15T10:42:21.471Z,120
2018-01-15T10:43:30.264Z,125
2018-01-15T10:44:38.791Z,125
2018-01-15T10:45:47.893Z,120
2018-01-15T10:46:56.379Z,120
2018-01-15T10:48:05.168Z,120
2018-01-15T10:49:14.006Z,120
2018-01-15T10:50:22.803Z,115
2018-01-15T10:51:31.597Z,115
2018-01-15T10:52:40.652Z,115
2018-01-15T10:53:49.454Z,115
2018-01-15T10:54:57.994Z,110
2018-01-15T10:56:06.795Z,110
2018-01-15T10:57:15.596Z,105
2018-01-15T10:58:24.401Z,105
2018-01-15T10:59:33.199Z,100
2018-01-15T11:00:41.741Z,100
2018-01-15T11:01:50.798Z,100
2018-01-15T11:02:59.589Z,95
2018-01-15T11:04:08.387Z,95
2018-01-15T11:05:16.916Z,90
2018-01-15T11:06:25.710Z,85
2018-01-15T11:07:34.240Z,80
2018-01-15T11:08:42.808Z,80
2018-01-15T11:09:53.128Z,80
2018-01-15T11:11:01.933Z,80
2018-01-15T11:12:10.613Z,80
2018-01-15T11:13:19.457Z,95
2018-01-15T11:14:28.249Z,105
2018-01-15T11:15:36.776Z,110
2018-01-15T11:16:45.837Z,120
2018-01-15T11:17:54.366Z,120
2018-01-15T11:19:03.202Z,125
2018-01-15T11:20:11.964Z,125
2018-01-15T11:21:20.759Z,125
2018-01-15T11:22:29.820Z,125
2018-01-15T11:23:39.452Z,125
2018-01-15T11:24:48.304Z,130
2018-01-15T11:25:57.098Z,130
2018-01-15T11:27:06.162Z,125
2018-01-15T11:28:15.000Z,125
2018-01-15T11:29:24.064Z,130
2018-01-15T11:30:32.855Z,130
2018-01-15T11:31:41.381Z,125
2018-01-15T11:32:49.911Z,115
2018-01-15T11:33:58.701Z,105
2018-01-15T11:35:07.492Z,105
2018-01-15T11:36:16.287Z,100
2018-01-15T11:37:24.817Z,90
2018-01-15T11:38:33.615Z,90
2018-01-15T11:39:42.932Z,100
2018-01-15T11:40:51.727Z,105
2018-01-15T11:42:00.804Z,85
2018-01-15T11:43:10.505Z,85
2018-01-15T11:44:19.292Z,85
2018-01-15T11:45:28.081Z,90
2018-01-15T11:46:37.407Z,90
2018-01-15T11:47:45.926Z,70
2018-01-15T11:48:54.454Z,90
2018-01-15T11:50:03.242Z,75
2018-01-15T11:51:11.771Z,85
2018-01-15T11:52:20.301Z,85
2018-01-15T11:53:29.091Z,75
2018-01-15T11:54:37.882Z,80
2018-01-15T11:55:46.671Z,85
2018-01-15T11:56:55.465Z,90
2018-01-15T11:58:03.990Z,90
2018-01-15T11:59:12.784Z,85
2018-01-15T12:00:21.312Z,90
2018-01-15T12:01:29.840Z,95
2018-01-15T12:02:38.630Z,80
2018-01-15T12:03:47.161Z,95
2018-01-15T12:04:55.688Z,90
2018-01-15T12:06:04.480Z,90
2018-01-15T12:07:13.007Z,100
2018-01-15T12:08:21.801Z,95
2018-01-15T12:09:30.592Z,90
2018-01-15T12:10:39.667Z,85
2018-01-15T12:11:48.465Z,85
2018-01-15T12:12:57.519Z,85
2018-01-15T12:14:06.579Z,85
2018-01-15T12:15:15.386Z,95
2018-01-15T12:16:24.231Z,95
2018-01-15T12:17:33.553Z,95
2018-01-15T12:18:42.360Z,95
2018-01-15T12:19:50.901Z,95
2018-01-15T12:20:59.966Z,105
2018-01-15T12:22:09.081Z,85
2018-01-15T12:23:17.619Z,95
2018-01-15T12:24:26.676Z,95
2018-01-15T12:25:35.481Z,100
2018-01-15T12:26:44.541Z,100
2018-01-15T12:27:53.846Z,90
2018-01-15T12:29:02.957Z,125
2018-01-15T12:30:12.031Z,110
2018-01-15T12:31:20.826Z,100
2018-01-15T12:32:29.621Z,110
2018-01-15T12:33:38.421Z,85
2018-01-15T12:34:46.951Z,90
2018-01-15T12:35:56.307Z,90
2018-01-15T12:37:05.365Z,65
2018-01-15T12:38:13.897Z,60
2018-01-15T12:39:22.694Z,55
2018-01-15T12:40:31.224Z,45
2018-01-15T12:41:40.019Z,45
2018-01-15T12:42:48.817Z,45
2018-01-15T12:43:57.873Z,45
2018-01-15T12:45:06.666Z,40
2018-01-15T12:46:15.461Z,40
2018-01-15T12:47:24.066Z,50
2018-01-15T12:48:33.121Z,45
2018-01-15T12:49:41.658Z,40
2018-01-15T12:50:50.186Z,35
2018-01-15T12:51:58.980Z,30
2018-01-15T12:53:07.509Z,35
2018-01-15T12:54:16.037Z,30
2018-01-15T12:55:24.568Z,30
2018-01-15T12:56:33.361Z,30
2018-01-15T12:57:41.888Z,35
2018-01-15T12:58:50.685Z,40
2018-01-15T12:59:59.212Z,45
2018-01-15T13:01:08.057Z,40
2018-01-15T13:02:17.116Z,35
2018-01-15T13:03:25.913Z,30
2018-01-15T13:04:34.438Z,40
2018-01-15T13:05:42.965Z,35
2018-01-15T13:06:51.855Z,35
2018-01-15T13:08:00.645Z,30
2018-01-15T13:09:09.706Z,30
2018-01-15T13:10:18.505Z,30
2018-01-15T13:11:27.034Z,25
2018-01-15T13:12:36.090Z,20
2018-01-15T13:13:44.622Z,20
2018-01-15T13:14:53.410Z,25
2018-01-15T13:16:01.937Z,25
2018-01-15T13:17:10.993Z,20
2018-01-15T13:18:20.052Z,25
2018-01-15T13:19:28.883Z,25
2018-01-15T13:20:37.677Z,30
2018-01-15T13:21:46.736Z,35
2018-01-15T13:22:55.529Z,45
2018-01-15T13:24:04.055Z,40
2018-01-15T13:25:12.850Z,45
2018-01-15T13:26:21.640Z,50
2018-01-15T13:27:30.432Z,50
2018-01-15T13:28:38.959Z,55
2018-01-15T13:29:47.752Z,65
2018-01-15T13:30:56.546Z,70
2018-01-15T13:32:05.072Z,75
2018-01-15T13:33:13.862Z,75
2018-01-15T13:34:22.389Z,80
2018-01-15T13:35:31.193Z,95
2018-01-15T13:36:40.263Z,100
2018-01-15T13:37:48.799Z,90
2018-01-15T13:38:57.592Z,85
2018-01-15T13:40:06.126Z,85
2018-01-15T13:41:14.929Z,80
2018-01-15T13:42:23.463Z,80
2018-01-15T13:43:32.792Z,80
2018-01-15T13:44:41.319Z,85
2018-01-15T13:45:49.846Z,85
2018-01-15T13:46:58.902Z,95
2018-01-15T13:48:07.429Z,105
2018-01-15T13:49:16.224Z,105
2018-01-15T13:50:25.021Z,100
2018-01-15T13:51:33.814Z,95
2018-01-15T13:52:42.872Z,85
2018-01-15T13:53:51.900Z,80
2018-01-15T13:55:00.426Z,85
2018-01-15T13:56:09.494Z,85
2018-01-15T13:57:18.551Z,85
2018-01-15T13:58:27.344Z,85
2018-01-15T13:59:36.139Z,85
2018-01-15T14:00:45.211Z,85
2018-01-15T14:01:54.031Z,85
2018-01-15T14:03:02.822Z,80
2018-01-15T14:04:11.885Z,75
2018-01-15T14:05:20.944Z,75
2018-01-15T14:06:29.490Z,70
2018-01-15T14:07:38.557Z,70
2018-01-15T14:08:47.103Z,65
2018-01-15T14:09:55.633Z,70
2018-01-15T14:11:04.162Z,65
2018-01-15T14:12:12.733Z,65
2018-01-15T14:13:21.790Z,55
2018-01-15T14:14:30.852Z,50
2018-01-15T14:15:39.650Z,50
2018-01-15T14:16:48.715Z,35
2018-01-15T14:17:57.244Z,30
2018-01-15T14:19:06.138Z,35
2018-01-15T14:20:14.927Z,35
2018-01-15T14:21:23.463Z,35
2018-01-15T14:22:32.518Z,25
2018-01-15T14:23:41.583Z,30
2018-01-15T14:24:50.381Z,25
2018-01-15T14:25:59.442Z,30
2018-01-15T14:27:08.233Z,25
2018-01-15T14:28:16.780Z,30
2018-01-15T14:29:26.106Z,25
2018-01-15T14:30:34.635Z,15
2018-01-15T14:31:43.559Z,10
2018-01-15T14:32:52.088Z,15
2018-01-15T14:34:01.164Z,15
2018-01-15T14:35:09.693Z,15
2018-01-15T14:36:18.487Z,15
2018-01-15T14:37:27.571Z,20
2018-01-15T14:38:36.356Z,20
2018-01-15T14:39:45.153Z,25
2018-01-15T14:40:53.689Z,25
2018-01-15T14:42:02.216Z,25
2018-01-15T14:43:10.746Z,25
2018-01-15T14:44:19.542Z,20
2018-01-15T14:45:28.337Z,20
2018-01-15T14:46:36.868Z,20
2018-01-15T14:47:45.659Z,15
2018-01-15T14:48:54.450Z,15
2018-01-15T14:50:03.512Z,15
2018-01-15T14:51:12.045Z,10
2018-01-15T14:52:20.845Z,10
2018-01-15T14:53:29.375Z,10
2018-01-15T14:54:38.496Z,10
2018-01-15T14:55:47.070Z,10
2018-01-15T14:56:56.134Z,15
2018-01-15T14:58:04.929Z,15
2018-01-15T14:59:13.725Z,20
2018-01-15T15:00:22.264Z,20
2018-01-15T15:01:31.321Z,20
2018-01-15T15:02:40.135Z,20
2018-01-15T15:03:48.953Z,20
2018-01-15T15:04:57.778Z,20
2018-01-15T15:06:06.316Z,20
2018-01-15T15:07:15.368Z,20
2018-01-15T15:08:24.155Z,20
2018-01-15T15:09:33.216Z,15
2018-01-15T15:10:42.285Z,15
2018-01-15T15:11:51.101Z,15
2018-01-15T15:13:00.164Z,15
2018-01-15T15:14:09.071Z,15
2018-01-15T15:15:17.745Z,15
2018-01-15T15:16:26.272Z,10
2018-01-15T15:17:35.342Z,10
2018-01-15T15:18:43.876Z,10
2018-01-15T15:19:52.926Z,10
2018-01-15T15:21:01.450Z,10
2018-01-15T15:22:10.238Z,10
2018-01-15T15:23:19.553Z,10
2018-01-15T15:24:28.604Z,5
2018-01-15T15:25:37.660Z,5
2018-01-15T15:26:46.187Z,5
2018-01-15T15:27:55.513Z,5
2018-01-15T15:29:04.143Z,5
2018-01-15T15:30:12.937Z,5
2018-01-15T15:31:21.737Z,5
2018-01-15T15:32:30.806Z,5
2018-01-15T15:33:39.876Z,5
2018-01-15T15:34:48.664Z,5
2018-01-15T15:35:57.456Z,5
2018-01-15T15:37:06.515Z,5
2018-01-15T15:38:15.306Z,0
2018-01-15T15:39:24.362Z,0
2018-01-15T15:40:33.418Z,0
2018-01-15T15:41:42.472Z,0
2018-01-15T15:42:51.000Z,0
2018-01-15T15:43:59.792Z,0
2018-01-15T15:45:08.316Z,0
2018-01-15T15:46:16.866Z,0
2018-01-15T15:47:25.653Z,0
2018-01-15T15:48:34.377Z,0
2018-01-15T15:49:43.170Z,0
2018-01-15T15:50:51.695Z,0
2018-01-15T15:52:00.490Z,0
2018-01-15T15:53:09.551Z,0
2018-01-15T15:54:18.078Z,0
2018-01-15T15:55:26.604Z,0
2018-01-15T15:56:35.403Z,0
2018-01-15T15:57:44.463Z,0
2018-01-15T15:58:52.989Z,0
2018-01-15T16:00:01.646Z,0
2018-01-15T16:01:10.477Z,0
2018-01-15T16:02:19.272Z,0
2018-01-15T16:03:28.329Z,0
2018-01-15T16:04:36.859Z,0
2018-01-15T16:05:45.645Z,0
2018-01-15T16:06:54.171Z,0
2018-01-15T16:08:02.974Z,0
2018-01-15T16:09:11.763Z,0
2018-01-15T16:10:20.575Z,0
2018-01-15T16:11:29.627Z,0
2018-01-15T16:12:38.683Z,0
2018-01-15T16:13:47.210Z,0
2018-01-15T16:14:56.174Z,0
2018-01-15T16:16:04.968Z,0
2018-01-15T16:17:14.129Z,0
2018-01-15T16:18:22.659Z,0
2018-01-15T16:19:31.458Z,0
2018-01-15T16:20:40.351Z,0
2018-01-15T16:21:49.817Z,0
2018-01-15T16:22:59.406Z,0
2018-01-15T16:24:07.963Z,0
2018-01-15T16:25:16.809Z,0
2018-01-15T16:26:25.629Z,0
2018-01-15T16:27:34.687Z,0
2018-01-15T16:28:43.222Z,0
2018-01-15T16:29:51.817Z,0
2018-01-15T16:31:01.167Z,0
2018-01-15T16:32:10.250Z,0
2018-01-15T16:33:19.040Z,0
2018-01-15T16:34:27.914Z,0
2018-01-15T16:35:36.440Z,0
2018-01-15T16:36:45.259Z,0
2018-01-15T16:37:54.341Z,0
2018-01-15T16:39:02.881Z,0
2018-01-15T16:40:11.698Z,0
2018-01-15T16:41:20.230Z,0
2018-01-15T16:42:29.303Z,0
2018-01-15T16:43:38.099Z,0